sensor_id;sensor_type;location;lat;lon;timestamp;temperature;humidity
4602;DHT22;2313;48.552;9.370;2023-11-19T00:02:12;8.30;99.90
4602;DHT22;2313;48.552;9.370;2023-11-19T00:04:38;8.40;99.90
4602;DHT22;2313;48.552;9.370;2023-11-19T00:07:06;8.40;99.90
4602;DHT22;2313;48.552;9.370;2023-11-19T00:09:36;8.50;99.90
4602;DHT22;2313;48.552;9.370;2023-11-19T00:12:04;8.60;99.90
4602;DHT22;2313;48.552;9.370;2023-11-19T00:14:30;8.70;99.90
4602;DHT22;2313;48.552;9.370;2023-11-19T00:16:55;8.80;99.90
4602;DHT22;2313;48.552;9.370;2023-11-19T00:19:21;8.90;99.90
4602;DHT22;2313;48.552;9.370;2023-11-19T00:21:47;9.00;99.90
4602;DHT22;2313;48.552;9.370;2023-11-19T00:24:12;9.20;99.90
4602;DHT22;2313;48.552;9.370;2023-11-19T00:26:42;9.10;99.90
4602;DHT22;2313;48.552;9.370;2023-11-19T00:29:07;9.10;99.90
4602;DHT22;2313;48.552;9.370;2023-11-19T00:31:33;9.20;99.90
4602;DHT22;2313;48.552;9.370;2023-11-19T00:33:58;9.30;99.90
4602;DHT22;2313;48.552;9.370;2023-11-19T00:36:24;9.40;99.90
4602;DHT22;2313;48.552;9.370;2023-11-19T00:38:51;9.50;99.90
4602;DHT22;2313;48.552;9.370;2023-11-19T00:41:18;9.40;99.90
4602;DHT22;2313;48.552;9.370;2023-11-19T00:43:44;9.50;99.90
4602;DHT22;2313;48.552;9.370;2023-11-19T00:46:09;9.50;99.90
4602;DHT22;2313;48.552;9.370;2023-11-19T00:48:37;9.50;99.90
4602;DHT22;2313;48.552;9.370;2023-11-19T00:51:02;9.60;99.90
4602;DHT22;2313;48.552;9.370;2023-11-19T00:53:29;9.60;99.90
4602;DHT22;2313;48.552;9.370;2023-11-19T00:55:55;9.70;99.90
4602;DHT22;2313;48.552;9.370;2023-11-19T00:58:21;9.70;99.90
4602;DHT22;2313;48.552;9.370;2023-11-19T01:00:47;9.80;99.90
4602;DHT22;2313;48.552;9.370;2023-11-19T01:03:13;9.90;99.90
4602;DHT22;2313;48.552;9.370;2023-11-19T01:05:40;9.90;99.90
4602;DHT22;2313;48.552;9.370;2023-11-19T01:08:05;9.90;99.90
4602;DHT22;2313;48.552;9.370;2023-11-19T01:10:31;9.80;99.90
4602;DHT22;2313;48.552;9.370;2023-11-19T01:12:57;9.90;99.90
4602;DHT22;2313;48.552;9.370;2023-11-19T01:15:24;9.90;99.90
4602;DHT22;2313;48.552;9.370;2023-11-19T01:17:49;9.90;99.90
4602;DHT22;2313;48.552;9.370;2023-11-19T01:20:15;10.00;99.90
4602;DHT22;2313;48.552;9.370;2023-11-19T01:22:40;10.00;99.90
4602;DHT22;2313;48.552;9.370;2023-11-19T01:25:06;10.00;99.90
4602;DHT22;2313;48.552;9.370;2023-11-19T01:27:32;10.00;99.90
4602;DHT22;2313;48.552;9.370;2023-11-19T01:30:00;10.00;99.90
4602;DHT22;2313;48.552;9.370;2023-11-19T01:32:29;10.10;99.90
4602;DHT22;2313;48.552;9.370;2023-11-19T01:34:54;10.20;99.90
4602;DHT22;2313;48.552;9.370;2023-11-19T01:37:20;10.20;99.90
4602;DHT22;2313;48.552;9.370;2023-11-19T01:39:46;10.20;99.90
4602;DHT22;2313;48.552;9.370;2023-11-19T01:42:11;10.20;99.90
4602;DHT22;2313;48.552;9.370;2023-11-19T01:44:41;10.20;99.90
4602;DHT22;2313;48.552;9.370;2023-11-19T01:47:07;10.20;99.90
4602;DHT22;2313;48.552;9.370;2023-11-19T01:49:34;10.20;99.90
4602;DHT22;2313;48.552;9.370;2023-11-19T01:52:00;10.20;99.90
4602;DHT22;2313;48.552;9.370;2023-11-19T01:54:26;10.20;99.90
4602;DHT22;2313;48.552;9.370;2023-11-19T01:56:56;10.40;99.90
4602;DHT22;2313;48.552;9.370;2023-11-19T01:59:22;10.40;99.90
4602;DHT22;2313;48.552;9.370;2023-11-19T02:01:54;10.40;99.90
4602;DHT22;2313;48.552;9.370;2023-11-19T02:04:21;10.50;99.90
4602;DHT22;2313;48.552;9.370;2023-11-19T02:06:48;10.50;99.90
4602;DHT22;2313;48.552;9.370;2023-11-19T02:09:15;10.60;99.90
4602;DHT22;2313;48.552;9.370;2023-11-19T02:11:45;10.50;99.90
4602;DHT22;2313;48.552;9.370;2023-11-19T02:14:10;10.40;99.90
4602;DHT22;2313;48.552;9.370;2023-11-19T02:16:36;10.60;99.90
4602;DHT22;2313;48.552;9.370;2023-11-19T02:19:02;10.60;99.90
4602;DHT22;2313;48.552;9.370;2023-11-19T02:21:27;10.60;99.90
4602;DHT22;2313;48.552;9.370;2023-11-19T02:23:53;10.60;99.90
4602;DHT22;2313;48.552;9.370;2023-11-19T02:26:26;10.60;99.90
4602;DHT22;2313;48.552;9.370;2023-11-19T02:28:53;10.70;99.90
4602;DHT22;2313;48.552;9.370;2023-11-19T02:31:19;10.60;99.90
4602;DHT22;2313;48.552;9.370;2023-11-19T02:33:45;10.60;99.90
4602;DHT22;2313;48.552;9.370;2023-11-19T02:36:11;10.60;99.90
4602;DHT22;2313;48.552;9.370;2023-11-19T02:38:37;10.70;99.90
4602;DHT22;2313;48.552;9.370;2023-11-19T02:41:06;10.70;99.90
4602;DHT22;2313;48.552;9.370;2023-11-19T02:43:32;10.70;99.90
4602;DHT22;2313;48.552;9.370;2023-11-19T02:46:03;10.70;99.90
4602;DHT22;2313;48.552;9.370;2023-11-19T02:48:35;10.70;99.90
4602;DHT22;2313;48.552;9.370;2023-11-19T02:51:02;10.70;99.90
4602;DHT22;2313;48.552;9.370;2023-11-19T02:53:32;10.70;99.90
4602;DHT22;2313;48.552;9.370;2023-11-19T02:55:58;10.60;99.90
4602;DHT22;2313;48.552;9.370;2023-11-19T02:58:31;10.70;99.90
4602;DHT22;2313;48.552;9.370;2023-11-19T03:00:57;10.70;99.90
4602;DHT22;2313;48.552;9.370;2023-11-19T03:03:25;10.70;99.90
4602;DHT22;2313;48.552;9.370;2023-11-19T03:05:54;10.70;99.90
4602;DHT22;2313;48.552;9.370;2023-11-19T03:08:20;10.70;99.90
4602;DHT22;2313;48.552;9.370;2023-11-19T03:10:47;10.70;99.90
4602;DHT22;2313;48.552;9.370;2023-11-19T03:13:14;10.80;99.90
4602;DHT22;2313;48.552;9.370;2023-11-19T03:15:40;10.80;99.90
4602;DHT22;2313;48.552;9.370;2023-11-19T03:18:06;10.80;99.90
4602;DHT22;2313;48.552;9.370;2023-11-19T03:20:31;10.80;99.90
4602;DHT22;2313;48.552;9.370;2023-11-19T03:22:57;10.70;99.90
4602;DHT22;2313;48.552;9.370;2023-11-19T03:25:27;10.70;99.90
4602;DHT22;2313;48.552;9.370;2023-11-19T03:27:58;10.70;99.90
4602;DHT22;2313;48.552;9.370;2023-11-19T03:30:24;10.70;99.90
4602;DHT22;2313;48.552;9.370;2023-11-19T03:32:50;10.70;99.90
4602;DHT22;2313;48.552;9.370;2023-11-19T03:35:16;10.70;99.90
4602;DHT22;2313;48.552;9.370;2023-11-19T03:37:41;10.70;99.90
4602;DHT22;2313;48.552;9.370;2023-11-19T03:40:09;10.70;99.90
4602;DHT22;2313;48.552;9.370;2023-11-19T03:42:35;10.70;99.90
4602;DHT22;2313;48.552;9.370;2023-11-19T03:45:01;10.60;99.90
4602;DHT22;2313;48.552;9.370;2023-11-19T03:47:29;10.70;99.90
4602;DHT22;2313;48.552;9.370;2023-11-19T03:49:54;10.70;99.90
4602;DHT22;2313;48.552;9.370;2023-11-19T03:52:20;10.70;99.90
4602;DHT22;2313;48.552;9.370;2023-11-19T03:54:46;10.60;99.90
4602;DHT22;2313;48.552;9.370;2023-11-19T03:57:12;10.60;99.90
4602;DHT22;2313;48.552;9.370;2023-11-19T03:59:39;10.70;99.90
4602;DHT22;2313;48.552;9.370;2023-11-19T04:02:05;10.60;99.90
4602;DHT22;2313;48.552;9.370;2023-11-19T04:04:30;10.70;99.90
4602;DHT22;2313;48.552;9.370;2023-11-19T04:06:56;10.70;99.90
4602;DHT22;2313;48.552;9.370;2023-11-19T04:09:22;10.70;99.90
4602;DHT22;2313;48.552;9.370;2023-11-19T04:11:47;10.70;99.90
4602;DHT22;2313;48.552;9.370;2023-11-19T04:14:14;10.70;99.90
4602;DHT22;2313;48.552;9.370;2023-11-19T04:16:40;10.80;99.90
4602;DHT22;2313;48.552;9.370;2023-11-19T04:19:06;10.80;99.90
4602;DHT22;2313;48.552;9.370;2023-11-19T04:21:32;10.80;99.90
4602;DHT22;2313;48.552;9.370;2023-11-19T04:23:58;10.80;99.90
4602;DHT22;2313;48.552;9.370;2023-11-19T04:26:23;10.90;99.90
4602;DHT22;2313;48.552;9.370;2023-11-19T04:28:49;10.90;99.90
4602;DHT22;2313;48.552;9.370;2023-11-19T04:31:15;11.00;99.90
4602;DHT22;2313;48.552;9.370;2023-11-19T04:33:43;10.90;99.90
4602;DHT22;2313;48.552;9.370;2023-11-19T04:36:10;11.00;99.90
4602;DHT22;2313;48.552;9.370;2023-11-19T04:38:36;11.00;99.90
4602;DHT22;2313;48.552;9.370;2023-11-19T04:41:04;11.00;99.90
4602;DHT22;2313;48.552;9.370;2023-11-19T04:43:31;11.10;99.90
4602;DHT22;2313;48.552;9.370;2023-11-19T04:45:57;11.10;99.90
4602;DHT22;2313;48.552;9.370;2023-11-19T04:48:23;11.10;99.90
4602;DHT22;2313;48.552;9.370;2023-11-19T04:50:49;11.10;99.90
4602;DHT22;2313;48.552;9.370;2023-11-19T04:53:16;11.20;99.90
4602;DHT22;2313;48.552;9.370;2023-11-19T04:55:42;11.10;99.90
4602;DHT22;2313;48.552;9.370;2023-11-19T04:58:08;11.10;99.90
4602;DHT22;2313;48.552;9.370;2023-11-19T05:00:33;11.10;99.90
4602;DHT22;2313;48.552;9.370;2023-11-19T05:02:59;11.10;99.90
4602;DHT22;2313;48.552;9.370;2023-11-19T05:05:24;11.20;99.90
4602;DHT22;2313;48.552;9.370;2023-11-19T05:07:50;11.20;99.90
4602;DHT22;2313;48.552;9.370;2023-11-19T05:10:16;11.20;99.90
4602;DHT22;2313;48.552;9.370;2023-11-19T05:12:41;11.20;99.90
4602;DHT22;2313;48.552;9.370;2023-11-19T05:15:07;11.30;99.90
4602;DHT22;2313;48.552;9.370;2023-11-19T05:17:33;11.30;99.90
4602;DHT22;2313;48.552;9.370;2023-11-19T05:19:59;11.30;99.90
4602;DHT22;2313;48.552;9.370;2023-11-19T05:22:24;11.30;99.90
4602;DHT22;2313;48.552;9.370;2023-11-19T05:24:51;11.30;99.90
4602;DHT22;2313;48.552;9.370;2023-11-19T05:27:17;11.30;99.90
4602;DHT22;2313;48.552;9.370;2023-11-19T05:29:43;11.40;99.90
4602;DHT22;2313;48.552;9.370;2023-11-19T05:32:09;11.40;99.90
4602;DHT22;2313;48.552;9.370;2023-11-19T05:34:35;11.40;99.90
4602;DHT22;2313;48.552;9.370;2023-11-19T05:37:00;11.40;99.90
4602;DHT22;2313;48.552;9.370;2023-11-19T05:39:27;11.40;99.90
4602;DHT22;2313;48.552;9.370;2023-11-19T05:41:53;11.30;99.90
4602;DHT22;2313;48.552;9.370;2023-11-19T05:44:19;11.40;99.90
4602;DHT22;2313;48.552;9.370;2023-11-19T05:46:45;11.40;99.90
4602;DHT22;2313;48.552;9.370;2023-11-19T05:49:11;11.40;99.90
4602;DHT22;2313;48.552;9.370;2023-11-19T05:51:41;11.40;99.90
4602;DHT22;2313;48.552;9.370;2023-11-19T05:54:10;11.50;99.90
4602;DHT22;2313;48.552;9.370;2023-11-19T05:56:36;11.50;99.90
4602;DHT22;2313;48.552;9.370;2023-11-19T05:59:02;11.50;99.90
4602;DHT22;2313;48.552;9.370;2023-11-19T06:01:33;11.50;99.90
4602;DHT22;2313;48.552;9.370;2023-11-19T06:03:59;11.50;99.90
4602;DHT22;2313;48.552;9.370;2023-11-19T06:06:26;11.70;99.90
4602;DHT22;2313;48.552;9.370;2023-11-19T06:08:52;11.50;99.90
4602;DHT22;2313;48.552;9.370;2023-11-19T06:11:17;11.50;99.90
4602;DHT22;2313;48.552;9.370;2023-11-19T06:13:45;11.50;99.90
4602;DHT22;2313;48.552;9.370;2023-11-19T06:16:11;11.60;99.90
4602;DHT22;2313;48.552;9.370;2023-11-19T06:18:37;11.60;99.90
4602;DHT22;2313;48.552;9.370;2023-11-19T06:21:03;11.60;99.90
4602;DHT22;2313;48.552;9.370;2023-11-19T06:23:29;11.60;99.90
4602;DHT22;2313;48.552;9.370;2023-11-19T06:25:54;11.60;99.90
4602;DHT22;2313;48.552;9.370;2023-11-19T06:28:20;11.60;99.90
4602;DHT22;2313;48.552;9.370;2023-11-19T06:30:45;11.70;99.90
4602;DHT22;2313;48.552;9.370;2023-11-19T06:33:14;11.70;99.90
4602;DHT22;2313;48.552;9.370;2023-11-19T06:35:40;11.70;99.90
4602;DHT22;2313;48.552;9.370;2023-11-19T06:38:06;11.60;99.90
4602;DHT22;2313;48.552;9.370;2023-11-19T06:40:32;11.60;99.90
4602;DHT22;2313;48.552;9.370;2023-11-19T06:42:59;11.60;99.90
4602;DHT22;2313;48.552;9.370;2023-11-19T06:45:25;11.50;99.90
4602;DHT22;2313;48.552;9.370;2023-11-19T06:47:51;11.70;99.90
4602;DHT22;2313;48.552;9.370;2023-11-19T06:50:16;11.60;99.90
4602;DHT22;2313;48.552;9.370;2023-11-19T06:52:42;11.50;99.90
4602;DHT22;2313;48.552;9.370;2023-11-19T06:55:08;11.50;99.90
4602;DHT22;2313;48.552;9.370;2023-11-19T06:57:35;11.50;99.90
4602;DHT22;2313;48.552;9.370;2023-11-19T07:00:00;11.60;99.90
4602;DHT22;2313;48.552;9.370;2023-11-19T07:02:26;11.60;99.90
4602;DHT22;2313;48.552;9.370;2023-11-19T07:04:51;11.50;99.90
4602;DHT22;2313;48.552;9.370;2023-11-19T07:07:17;11.60;99.90
4602;DHT22;2313;48.552;9.370;2023-11-19T07:09:43;11.70;99.90
4602;DHT22;2313;48.552;9.370;2023-11-19T07:12:09;11.70;99.90
4602;DHT22;2313;48.552;9.370;2023-11-19T07:14:34;11.80;99.90
4602;DHT22;2313;48.552;9.370;2023-11-19T07:17:00;11.70;99.90
4602;DHT22;2313;48.552;9.370;2023-11-19T07:19:26;11.70;99.90
4602;DHT22;2313;48.552;9.370;2023-11-19T07:21:52;11.80;99.90
4602;DHT22;2313;48.552;9.370;2023-11-19T07:24:20;11.70;99.90
4602;DHT22;2313;48.552;9.370;2023-11-19T07:26:46;11.70;99.90
4602;DHT22;2313;48.552;9.370;2023-11-19T07:29:15;11.90;99.90
4602;DHT22;2313;48.552;9.370;2023-11-19T07:31:43;11.80;99.90
4602;DHT22;2313;48.552;9.370;2023-11-19T07:34:10;11.90;99.90
4602;DHT22;2313;48.552;9.370;2023-11-19T07:36:37;11.90;99.90
4602;DHT22;2313;48.552;9.370;2023-11-19T07:39:04;11.90;99.90
4602;DHT22;2313;48.552;9.370;2023-11-19T07:41:30;11.90;99.90
4602;DHT22;2313;48.552;9.370;2023-11-19T07:43:56;11.90;99.90
4602;DHT22;2313;48.552;9.370;2023-11-19T07:46:22;12.10;99.90
4602;DHT22;2313;48.552;9.370;2023-11-19T07:48:48;11.90;99.90
4602;DHT22;2313;48.552;9.370;2023-11-19T07:51:14;11.90;99.90
4602;DHT22;2313;48.552;9.370;2023-11-19T07:53:40;11.90;99.90
4602;DHT22;2313;48.552;9.370;2023-11-19T07:56:07;11.90;99.90
4602;DHT22;2313;48.552;9.370;2023-11-19T07:58:33;12.00;99.90
4602;DHT22;2313;48.552;9.370;2023-11-19T08:00:59;12.00;99.90
4602;DHT22;2313;48.552;9.370;2023-11-19T08:03:25;12.20;99.90
4602;DHT22;2313;48.552;9.370;2023-11-19T08:05:50;12.10;99.90
4602;DHT22;2313;48.552;9.370;2023-11-19T08:08:16;12.20;99.90
4602;DHT22;2313;48.552;9.370;2023-11-19T08:10:42;12.20;99.90
4602;DHT22;2313;48.552;9.370;2023-11-19T08:13:10;12.20;99.90
4602;DHT22;2313;48.552;9.370;2023-11-19T08:15:36;12.30;99.90
4602;DHT22;2313;48.552;9.370;2023-11-19T08:18:01;12.10;99.90
4602;DHT22;2313;48.552;9.370;2023-11-19T08:20:27;12.20;99.90
4602;DHT22;2313;48.552;9.370;2023-11-19T08:22:53;12.30;99.90
4602;DHT22;2313;48.552;9.370;2023-11-19T08:25:19;12.50;99.90
4602;DHT22;2313;48.552;9.370;2023-11-19T08:27:44;12.20;99.90
4602;DHT22;2313;48.552;9.370;2023-11-19T08:30:10;12.40;99.90
4602;DHT22;2313;48.552;9.370;2023-11-19T08:32:36;12.40;99.90
4602;DHT22;2313;48.552;9.370;2023-11-19T08:35:02;12.40;99.90
4602;DHT22;2313;48.552;9.370;2023-11-19T08:37:28;12.40;99.90
4602;DHT22;2313;48.552;9.370;2023-11-19T08:39:53;12.60;99.90
4602;DHT22;2313;48.552;9.370;2023-11-19T08:42:19;12.40;99.90
4602;DHT22;2313;48.552;9.370;2023-11-19T08:44:49;12.70;99.90
4602;DHT22;2313;48.552;9.370;2023-11-19T08:47:16;12.60;99.90
4602;DHT22;2313;48.552;9.370;2023-11-19T08:49:44;12.70;99.90
4602;DHT22;2313;48.552;9.370;2023-11-19T08:52:09;12.70;99.90
4602;DHT22;2313;48.552;9.370;2023-11-19T08:54:36;12.80;99.90
4602;DHT22;2313;48.552;9.370;2023-11-19T08:57:02;12.80;99.90
4602;DHT22;2313;48.552;9.370;2023-11-19T08:59:29;12.90;99.90
4602;DHT22;2313;48.552;9.370;2023-11-19T09:01:54;13.00;99.90
4602;DHT22;2313;48.552;9.370;2023-11-19T09:04:20;13.10;99.90
4602;DHT22;2313;48.552;9.370;2023-11-19T09:06:48;13.20;99.90
4602;DHT22;2313;48.552;9.370;2023-11-19T09:09:14;13.20;99.90
4602;DHT22;2313;48.552;9.370;2023-11-19T09:11:40;13.20;99.90
4602;DHT22;2313;48.552;9.370;2023-11-19T09:14:06;13.20;99.90
4602;DHT22;2313;48.552;9.370;2023-11-19T09:16:31;13.10;99.90
4602;DHT22;2313;48.552;9.370;2023-11-19T09:18:57;13.10;99.90
4602;DHT22;2313;48.552;9.370;2023-11-19T09:21:27;13.20;99.90
4602;DHT22;2313;48.552;9.370;2023-11-19T09:23:55;13.20;99.90
4602;DHT22;2313;48.552;9.370;2023-11-19T09:26:20;13.30;99.90
4602;DHT22;2313;48.552;9.370;2023-11-19T09:28:46;13.30;99.90
4602;DHT22;2313;48.552;9.370;2023-11-19T09:31:16;13.30;99.90
4602;DHT22;2313;48.552;9.370;2023-11-19T09:33:42;13.30;99.90
4602;DHT22;2313;48.552;9.370;2023-11-19T09:36:08;13.40;99.90
4602;DHT22;2313;48.552;9.370;2023-11-19T09:38:34;13.30;99.90
4602;DHT22;2313;48.552;9.370;2023-11-19T09:41:07;13.30;99.90
4602;DHT22;2313;48.552;9.370;2023-11-19T09:43:34;13.30;99.90
4602;DHT22;2313;48.552;9.370;2023-11-19T09:46:09;13.40;99.90
4602;DHT22;2313;48.552;9.370;2023-11-19T09:48:37;13.40;99.90
4602;DHT22;2313;48.552;9.370;2023-11-19T09:51:04;13.40;99.90
4602;DHT22;2313;48.552;9.370;2023-11-19T09:53:31;13.40;99.90
4602;DHT22;2313;48.552;9.370;2023-11-19T09:55:59;13.40;99.90
4602;DHT22;2313;48.552;9.370;2023-11-19T09:58:26;13.40;99.90
4602;DHT22;2313;48.552;9.370;2023-11-19T10:00:51;13.40;99.90
4602;DHT22;2313;48.552;9.370;2023-11-19T10:03:21;13.40;99.90
4602;DHT22;2313;48.552;9.370;2023-11-19T10:05:47;13.40;99.90
4602;DHT22;2313;48.552;9.370;2023-11-19T10:08:13;13.40;99.90
4602;DHT22;2313;48.552;9.370;2023-11-19T10:10:39;13.40;99.90
4602;DHT22;2313;48.552;9.370;2023-11-19T10:13:05;13.40;99.90
4602;DHT22;2313;48.552;9.370;2023-11-19T10:15:36;13.60;99.90
4602;DHT22;2313;48.552;9.370;2023-11-19T10:18:02;13.50;99.90
4602;DHT22;2313;48.552;9.370;2023-11-19T10:20:40;13.50;99.90
4602;DHT22;2313;48.552;9.370;2023-11-19T10:23:06;13.50;99.90
4602;DHT22;2313;48.552;9.370;2023-11-19T10:25:32;13.70;99.90
4602;DHT22;2313;48.552;9.370;2023-11-19T10:27:58;13.60;99.90
4602;DHT22;2313;48.552;9.370;2023-11-19T10:30:26;13.70;99.90
4602;DHT22;2313;48.552;9.370;2023-11-19T10:35:32;13.90;99.90
4602;DHT22;2313;48.552;9.370;2023-11-19T10:38:14;13.90;99.90
4602;DHT22;2313;48.552;9.370;2023-11-19T10:40:41;14.00;99.90
4602;DHT22;2313;48.552;9.370;2023-11-19T10:43:07;14.00;99.90
4602;DHT22;2313;48.552;9.370;2023-11-19T10:45:33;13.90;99.90
4602;DHT22;2313;48.552;9.370;2023-11-19T10:47:59;13.90;99.90
4602;DHT22;2313;48.552;9.370;2023-11-19T10:50:28;13.90;99.90
4602;DHT22;2313;48.552;9.370;2023-11-19T10:52:56;13.80;99.90
4602;DHT22;2313;48.552;9.370;2023-11-19T10:55:27;13.90;99.90
4602;DHT22;2313;48.552;9.370;2023-11-19T10:58:01;14.50;99.90
4602;DHT22;2313;48.552;9.370;2023-11-19T11:00:38;14.60;99.90
4602;DHT22;2313;48.552;9.370;2023-11-19T11:03:18;14.70;99.90
4602;DHT22;2313;48.552;9.370;2023-11-19T11:05:48;14.50;99.90
4602;DHT22;2313;48.552;9.370;2023-11-19T11:08:14;14.40;99.90
4602;DHT22;2313;48.552;9.370;2023-11-19T11:10:44;14.40;99.90
4602;DHT22;2313;48.552;9.370;2023-11-19T11:13:11;14.50;99.90
4602;DHT22;2313;48.552;9.370;2023-11-19T11:15:39;14.50;99.90
4602;DHT22;2313;48.552;9.370;2023-11-19T11:18:08;14.50;99.90
4602;DHT22;2313;48.552;9.370;2023-11-19T11:20:35;14.50;99.90
4602;DHT22;2313;48.552;9.370;2023-11-19T11:32:34;14.50;99.90
4602;DHT22;2313;48.552;9.370;2023-11-19T11:37:49;14.50;99.90
4602;DHT22;2313;48.552;9.370;2023-11-19T11:40:15;14.50;99.90
4602;DHT22;2313;48.552;9.370;2023-11-19T11:42:44;14.40;99.90
4602;DHT22;2313;48.552;9.370;2023-11-19T11:45:13;14.40;99.90
4602;DHT22;2313;48.552;9.370;2023-11-19T11:50:18;14.50;99.90
4602;DHT22;2313;48.552;9.370;2023-11-19T11:57:51;14.70;99.90
4602;DHT22;2313;48.552;9.370;2023-11-19T12:02:59;14.90;99.90
4602;DHT22;2313;48.552;9.370;2023-11-19T12:05:25;15.00;99.90
4602;DHT22;2313;48.552;9.370;2023-11-19T12:07:55;15.10;99.90
4602;DHT22;2313;48.552;9.370;2023-11-19T12:10:21;15.20;99.90
4602;DHT22;2313;48.552;9.370;2023-11-19T12:12:47;15.30;99.90
4602;DHT22;2313;48.552;9.370;2023-11-19T12:15:13;15.30;99.90
4602;DHT22;2313;48.552;9.370;2023-11-19T12:17:47;15.30;99.90
4602;DHT22;2313;48.552;9.370;2023-11-19T12:20:15;15.20;99.90
4602;DHT22;2313;48.552;9.370;2023-11-19T12:22:42;15.10;99.90
4602;DHT22;2313;48.552;9.370;2023-11-19T12:25:10;15.00;99.90
4602;DHT22;2313;48.552;9.370;2023-11-19T12:27:43;15.10;99.90
4602;DHT22;2313;48.552;9.370;2023-11-19T12:30:10;15.00;99.90
4602;DHT22;2313;48.552;9.370;2023-11-19T12:32:43;15.10;99.90
4602;DHT22;2313;48.552;9.370;2023-11-19T12:35:10;15.30;99.90
4602;DHT22;2313;48.552;9.370;2023-11-19T12:37:49;15.40;99.90
4602;DHT22;2313;48.552;9.370;2023-11-19T12:40:23;15.50;99.90
4602;DHT22;2313;48.552;9.370;2023-11-19T12:42:49;15.50;99.90
4602;DHT22;2313;48.552;9.370;2023-11-19T12:45:16;15.60;99.90
4602;DHT22;2313;48.552;9.370;2023-11-19T12:47:43;15.70;99.90
4602;DHT22;2313;48.552;9.370;2023-11-19T12:50:09;15.70;99.90
4602;DHT22;2313;48.552;9.370;2023-11-19T12:52:36;15.60;99.90
4602;DHT22;2313;48.552;9.370;2023-11-19T12:55:23;15.60;99.90
4602;DHT22;2313;48.552;9.370;2023-11-19T12:57:49;15.50;99.90
4602;DHT22;2313;48.552;9.370;2023-11-19T13:00:19;15.40;99.90
4602;DHT22;2313;48.552;9.370;2023-11-19T13:02:51;15.40;99.90
4602;DHT22;2313;48.552;9.370;2023-11-19T13:05:33;15.60;99.90
4602;DHT22;2313;48.552;9.370;2023-11-19T13:08:03;15.70;99.90
4602;DHT22;2313;48.552;9.370;2023-11-19T13:10:30;15.70;99.90
4602;DHT22;2313;48.552;9.370;2023-11-19T13:13:07;15.70;99.90
4602;DHT22;2313;48.552;9.370;2023-11-19T13:15:36;15.80;99.90
4602;DHT22;2313;48.552;9.370;2023-11-19T13:18:02;15.80;99.90
4602;DHT22;2313;48.552;9.370;2023-11-19T13:20:29;15.70;99.90
4602;DHT22;2313;48.552;9.370;2023-11-19T13:25:24;15.80;99.90
4602;DHT22;2313;48.552;9.370;2023-11-19T13:27:50;16.00;99.90
4602;DHT22;2313;48.552;9.370;2023-11-19T13:30:16;15.80;99.90
4602;DHT22;2313;48.552;9.370;2023-11-19T13:32:42;15.90;99.90
4602;DHT22;2313;48.552;9.370;2023-11-19T13:35:09;15.80;99.90
4602;DHT22;2313;48.552;9.370;2023-11-19T13:37:35;15.80;99.90
4602;DHT22;2313;48.552;9.370;2023-11-19T13:40:00;15.80;99.90
4602;DHT22;2313;48.552;9.370;2023-11-19T13:42:26;15.70;99.90
4602;DHT22;2313;48.552;9.370;2023-11-19T13:44:52;15.60;99.90
4602;DHT22;2313;48.552;9.370;2023-11-19T13:47:18;15.70;99.90
4602;DHT22;2313;48.552;9.370;2023-11-19T13:49:44;15.60;99.90
4602;DHT22;2313;48.552;9.370;2023-11-19T13:52:10;15.50;99.90
4602;DHT22;2313;48.552;9.370;2023-11-19T13:54:36;15.50;99.90
4602;DHT22;2313;48.552;9.370;2023-11-19T13:57:03;15.50;99.90
4602;DHT22;2313;48.552;9.370;2023-11-19T13:59:32;15.30;99.90
4602;DHT22;2313;48.552;9.370;2023-11-19T14:01:58;15.20;99.90
4602;DHT22;2313;48.552;9.370;2023-11-19T14:04:24;15.10;99.90
4602;DHT22;2313;48.552;9.370;2023-11-19T14:06:50;15.10;99.90
4602;DHT22;2313;48.552;9.370;2023-11-19T14:09:16;14.90;99.90
4602;DHT22;2313;48.552;9.370;2023-11-19T14:11:43;14.80;99.90
4602;DHT22;2313;48.552;9.370;2023-11-19T14:14:08;14.80;99.90
4602;DHT22;2313;48.552;9.370;2023-11-19T14:16:34;14.80;99.90
4602;DHT22;2313;48.552;9.370;2023-11-19T14:19:00;14.70;99.90
4602;DHT22;2313;48.552;9.370;2023-11-19T14:21:25;14.60;99.90
4602;DHT22;2313;48.552;9.370;2023-11-19T14:23:52;14.50;99.90
4602;DHT22;2313;48.552;9.370;2023-11-19T14:26:18;14.40;99.90
4602;DHT22;2313;48.552;9.370;2023-11-19T14:28:44;14.40;99.90
4602;DHT22;2313;48.552;9.370;2023-11-19T14:31:09;14.40;99.90
4602;DHT22;2313;48.552;9.370;2023-11-19T14:33:35;14.40;99.90
4602;DHT22;2313;48.552;9.370;2023-11-19T14:36:03;14.30;99.90
4602;DHT22;2313;48.552;9.370;2023-11-19T14:38:29;14.30;99.90
4602;DHT22;2313;48.552;9.370;2023-11-19T14:40:55;14.30;99.90
4602;DHT22;2313;48.552;9.370;2023-11-19T14:43:21;14.30;99.90
4602;DHT22;2313;48.552;9.370;2023-11-19T14:45:46;14.20;99.90
4602;DHT22;2313;48.552;9.370;2023-11-19T14:48:12;14.10;99.90
4602;DHT22;2313;48.552;9.370;2023-11-19T14:50:37;14.10;99.90
4602;DHT22;2313;48.552;9.370;2023-11-19T14:53:03;14.10;99.90
4602;DHT22;2313;48.552;9.370;2023-11-19T14:55:29;14.00;99.90
4602;DHT22;2313;48.552;9.370;2023-11-19T14:57:54;14.00;99.90
4602;DHT22;2313;48.552;9.370;2023-11-19T15:00:22;14.00;99.90
4602;DHT22;2313;48.552;9.370;2023-11-19T15:02:48;14.00;99.90
4602;DHT22;2313;48.552;9.370;2023-11-19T15:05:13;14.00;99.90
4602;DHT22;2313;48.552;9.370;2023-11-19T15:07:40;14.00;99.90
4602;DHT22;2313;48.552;9.370;2023-11-19T15:10:06;14.00;99.90
4602;DHT22;2313;48.552;9.370;2023-11-19T15:12:38;13.90;99.90
4602;DHT22;2313;48.552;9.370;2023-11-19T15:15:09;13.90;99.90
4602;DHT22;2313;48.552;9.370;2023-11-19T15:17:35;13.90;99.90
4602;DHT22;2313;48.552;9.370;2023-11-19T15:20:03;13.90;99.90
4602;DHT22;2313;48.552;9.370;2023-11-19T15:22:28;13.80;99.90
4602;DHT22;2313;48.552;9.370;2023-11-19T15:24:54;13.90;99.90
4602;DHT22;2313;48.552;9.370;2023-11-19T15:27:20;13.80;99.90
4602;DHT22;2313;48.552;9.370;2023-11-19T15:29:46;13.70;99.90
4602;DHT22;2313;48.552;9.370;2023-11-19T15:32:11;13.70;99.90
4602;DHT22;2313;48.552;9.370;2023-11-19T15:34:37;13.60;99.90
4602;DHT22;2313;48.552;9.370;2023-11-19T15:37:05;13.60;99.90
4602;DHT22;2313;48.552;9.370;2023-11-19T15:39:30;13.60;99.90
4602;DHT22;2313;48.552;9.370;2023-11-19T15:41:57;13.60;99.90
4602;DHT22;2313;48.552;9.370;2023-11-19T15:44:24;13.40;99.90
4602;DHT22;2313;48.552;9.370;2023-11-19T15:46:50;13.40;99.90
4602;DHT22;2313;48.552;9.370;2023-11-19T15:49:16;13.40;99.90
4602;DHT22;2313;48.552;9.370;2023-11-19T15:51:42;13.40;99.90
4602;DHT22;2313;48.552;9.370;2023-11-19T15:54:07;13.40;99.90
4602;DHT22;2313;48.552;9.370;2023-11-19T15:56:33;13.30;99.90
4602;DHT22;2313;48.552;9.370;2023-11-19T15:58:59;13.30;99.90
4602;DHT22;2313;48.552;9.370;2023-11-19T16:01:24;13.30;99.90
4602;DHT22;2313;48.552;9.370;2023-11-19T16:03:50;13.30;99.90
4602;DHT22;2313;48.552;9.370;2023-11-19T16:06:17;13.20;99.90
4602;DHT22;2313;48.552;9.370;2023-11-19T16:08:43;13.20;99.90
4602;DHT22;2313;48.552;9.370;2023-11-19T16:11:09;13.10;99.90
4602;DHT22;2313;48.552;9.370;2023-11-19T16:13:35;13.10;99.90
4602;DHT22;2313;48.552;9.370;2023-11-19T16:16:01;13.10;99.90
4602;DHT22;2313;48.552;9.370;2023-11-19T16:18:26;13.00;99.90
4602;DHT22;2313;48.552;9.370;2023-11-19T16:20:54;13.00;99.90
4602;DHT22;2313;48.552;9.370;2023-11-19T16:23:20;13.00;99.90
4602;DHT22;2313;48.552;9.370;2023-11-19T16:25:46;12.90;99.90
4602;DHT22;2313;48.552;9.370;2023-11-19T16:28:11;12.90;99.90